createdAt,value
2017-12-15T00:02:08.950Z,8.30
2017-12-15T00:04:35.147Z,6.10
2017-12-15T00:07:01.577Z,12.90
2017-12-15T00:09:27.837Z,5.63
2017-12-15T00:11:54.061Z,10.10
2017-12-15T00:14:20.355Z,4.80
2017-12-15T00:16:46.606Z,6.50
2017-12-15T00:19:13.037Z,6.60
2017-12-15T00:21:39.228Z,3.57
2017-12-15T00:24:05.466Z,2.63
2017-12-15T00:26:31.666Z,4.63
2017-12-15T00:28:57.917Z,4.07
2017-12-15T00:31:24.150Z,3.33
2017-12-15T00:33:50.339Z,6.37
2017-12-15T00:36:16.538Z,4.73
2017-12-15T00:38:42.828Z,3.10
2017-12-15T00:41:09.037Z,3.73
2017-12-15T00:43:35.258Z,8.13
2017-12-15T00:46:01.544Z,8.03
2017-12-15T00:48:27.980Z,6.13
2017-12-15T00:50:54.160Z,6.93
2017-12-15T00:53:20.651Z,7.50
2017-12-15T00:55:46.872Z,4.37
2017-12-15T00:58:13.084Z,18.73
2017-12-15T01:00:45.209Z,13.60
2017-12-15T01:03:11.388Z,2.53
2017-12-15T01:05:37.574Z,6.07
2017-12-15T01:08:03.914Z,2.30
2017-12-15T01:10:30.104Z,4.10
2017-12-15T01:12:56.293Z,1.80
2017-12-15T01:15:22.529Z,2.90
2017-12-15T01:17:48.700Z,2.40
2017-12-15T01:20:15.130Z,3.70
2017-12-15T01:22:41.365Z,7.23
2017-12-15T01:25:07.545Z,6.20
2017-12-15T01:27:33.723Z,5.10
2017-12-15T01:29:59.970Z,9.77
2017-12-15T01:32:26.157Z,5.07
2017-12-15T01:34:52.340Z,3.40
2017-12-15T01:37:18.578Z,2.43
2017-12-15T01:39:44.827Z,1.83
2017-12-15T01:42:11.034Z,3.73
2017-12-15T01:44:37.289Z,2.80
2017-12-15T01:47:03.506Z,1.77
2017-12-15T01:49:29.686Z,2.90
2017-12-15T01:51:55.952Z,2.10
2017-12-15T01:54:22.153Z,4.30
2017-12-15T01:56:48.354Z,2.33
2017-12-15T01:59:14.646Z,2.53
2017-12-15T02:01:40.811Z,4.63
2017-12-15T02:04:07.013Z,5.33
2017-12-15T02:06:33.238Z,3.77
2017-12-15T02:08:59.690Z,7.60
2017-12-15T02:11:25.871Z,2.10
2017-12-15T02:13:52.108Z,3.70
2017-12-15T02:16:18.290Z,2.23
2017-12-15T02:18:44.491Z,2.33
2017-12-15T02:21:10.737Z,2.57
2017-12-15T02:23:36.922Z,3.00
2017-12-15T02:26:03.109Z,2.70
2017-12-15T02:28:29.353Z,4.63
2017-12-15T02:30:55.551Z,2.57
2017-12-15T02:33:21.828Z,3.87
2017-12-15T02:35:48.062Z,3.33
2017-12-15T02:38:14.245Z,1.90
2017-12-15T02:40:40.691Z,1.77
2017-12-15T02:43:06.936Z,2.60
2017-12-15T02:45:33.132Z,3.17
2017-12-15T02:47:59.402Z,2.80
2017-12-15T02:50:25.648Z,2.00
2017-12-15T02:52:51.808Z,4.27
2017-12-15T02:55:18.007Z,1.93
2017-12-15T02:57:44.245Z,5.53
2017-12-15T03:00:11.349Z,2.90
2017-12-15T03:02:37.529Z,1.97
2017-12-15T03:05:03.777Z,2.87
2017-12-15T03:07:30.201Z,2.50
2017-12-15T03:09:56.387Z,3.40
2017-12-15T03:12:22.646Z,3.83
2017-12-15T03:14:49.078Z,2.43
2017-12-15T03:17:15.263Z,1.40
2017-12-15T03:19:41.484Z,5.13
2017-12-15T03:22:07.684Z,1.73
2017-12-15T03:24:33.878Z,3.80
2017-12-15T03:27:00.136Z,2.13
2017-12-15T03:29:26.616Z,5.20
2017-12-15T03:31:52.811Z,3.80
2017-12-15T03:34:19.064Z,7.80
2017-12-15T03:36:45.265Z,2.03
2017-12-15T03:39:11.750Z,3.43
2017-12-15T03:41:38.039Z,2.03
2017-12-15T03:44:04.485Z,4.97
2017-12-15T03:46:30.664Z,6.10
2017-12-15T03:48:56.905Z,3.07
2017-12-15T03:51:23.077Z,2.30
2017-12-15T03:53:49.258Z,1.93
2017-12-15T03:56:15.516Z,2.43
2017-12-15T03:58:41.935Z,4.30
2017-12-15T04:01:08.375Z,4.10
2017-12-15T04:03:34.626Z,2.23
2017-12-15T04:06:01.064Z,2.23
2017-12-15T04:08:27.473Z,5.60
2017-12-15T04:10:53.725Z,2.30
2017-12-15T04:13:19.912Z,3.13
2017-12-15T04:15:46.119Z,2.63
2017-12-15T04:18:12.609Z,2.40
2017-12-15T04:20:38.811Z,6.20
2017-12-15T04:23:05.090Z,4.63
2017-12-15T04:25:31.305Z,1.83
2017-12-15T04:27:57.498Z,3.60
2017-12-15T04:30:23.693Z,2.20
2017-12-15T04:32:49.960Z,2.30
2017-12-15T04:35:16.387Z,4.53
2017-12-15T04:37:42.580Z,2.97
2017-12-15T04:40:08.816Z,2.80
2017-12-15T04:42:35.034Z,1.97
2017-12-15T04:47:32.911Z,19.70
2017-12-15T04:49:59.115Z,4.63
2017-12-15T04:52:25.300Z,2.23
2017-12-15T04:54:51.554Z,3.00
2017-12-15T04:57:17.755Z,4.90
2017-12-15T04:59:44.219Z,2.00
2017-12-15T05:02:10.475Z,1.93
2017-12-15T05:04:36.666Z,1.90
2017-12-15T05:07:03.094Z,3.13
2017-12-15T05:09:29.341Z,3.10
2017-12-15T05:11:55.528Z,1.90
2017-12-15T05:14:21.821Z,2.60
2017-12-15T05:16:49.181Z,2.73
2017-12-15T05:19:16.197Z,2.57
2017-12-15T05:21:42.867Z,2.20
2017-12-15T05:24:09.529Z,3.97
2017-12-15T05:26:36.089Z,4.30
2017-12-15T05:29:02.319Z,3.27
2017-12-15T05:31:28.580Z,2.93
2017-12-15T05:33:54.784Z,9.70
2017-12-15T05:36:20.988Z,3.57
2017-12-15T05:38:47.210Z,2.17
2017-12-15T05:41:13.956Z,1.67
2017-12-15T05:43:40.151Z,3.03
2017-12-15T05:46:06.945Z,2.40
2017-12-15T05:48:33.210Z,5.87
2017-12-15T05:50:59.409Z,3.63
2017-12-15T05:53:25.662Z,2.47
2017-12-15T05:55:51.855Z,2.80
2017-12-15T05:58:18.058Z,4.50
2017-12-15T06:00:44.306Z,4.23
2017-12-15T06:03:10.502Z,3.70
2017-12-15T06:05:36.715Z,5.40
2017-12-15T06:08:02.959Z,5.27
2017-12-15T06:10:29.156Z,2.07
2017-12-15T06:12:55.360Z,2.50
2017-12-15T06:15:21.599Z,6.43
2017-12-15T06:17:47.797Z,7.03
2017-12-15T06:20:14.017Z,9.67
2017-12-15T06:22:40.303Z,6.93
2017-12-15T06:25:06.506Z,3.13
2017-12-15T06:27:32.710Z,4.60
2017-12-15T06:29:59.058Z,5.60
2017-12-15T06:32:25.627Z,4.63
2017-12-15T06:34:51.855Z,4.10
2017-12-15T06:37:18.125Z,3.30
2017-12-15T06:39:44.330Z,4.83
2017-12-15T06:42:10.631Z,4.13
2017-12-15T06:44:36.911Z,6.17
2017-12-15T06:47:03.128Z,6.80
2017-12-15T06:49:29.342Z,9.27
2017-12-15T06:51:55.624Z,13.77
2017-12-15T06:54:22.059Z,4.13
2017-12-15T06:56:48.258Z,4.70
2017-12-15T06:59:14.766Z,9.13
2017-12-15T07:01:44.312Z,10.10
2017-12-15T07:04:10.518Z,9.80
2017-12-15T07:06:36.800Z,12.57
2017-12-15T07:09:03.107Z,6.83
2017-12-15T07:11:29.299Z,25.37
2017-12-15T07:13:55.541Z,33.17
2017-12-15T07:16:21.760Z,8.53
2017-12-15T07:18:47.969Z,24.13
2017-12-15T07:21:14.224Z,14.13
2017-12-15T07:23:40.485Z,10.83
2017-12-15T07:26:06.690Z,14.63
2017-12-15T07:28:32.978Z,14.33
2017-12-15T07:30:59.252Z,27.67
2017-12-15T07:33:25.685Z,14.93
2017-12-15T07:35:51.935Z,23.87
2017-12-15T07:38:18.140Z,23.70
2017-12-15T07:40:44.358Z,17.77
2017-12-15T07:43:10.730Z,14.10
2017-12-15T07:45:36.940Z,19.00
2017-12-15T07:48:03.130Z,18.30
2017-12-15T07:50:29.615Z,12.13
2017-12-15T07:52:55.824Z,7.63
2017-12-15T07:55:22.034Z,6.73
2017-12-15T07:57:48.295Z,9.73
2017-12-15T08:00:14.581Z,5.07
2017-12-15T08:02:40.771Z,11.10
2017-12-15T08:05:07.046Z,4.73
2017-12-15T08:07:33.251Z,7.00
2017-12-15T08:09:59.455Z,7.47
2017-12-15T08:12:25.710Z,7.27
2017-12-15T08:14:51.897Z,8.13
2017-12-15T08:17:18.450Z,6.40
2017-12-15T08:19:44.704Z,5.93
2017-12-15T08:22:10.909Z,7.87
2017-12-15T08:24:37.123Z,6.73
2017-12-15T08:27:03.364Z,11.23
2017-12-15T08:29:29.610Z,18.80
2017-12-15T08:31:55.831Z,4.63
2017-12-15T08:34:22.083Z,4.40
2017-12-15T08:36:48.583Z,7.47
2017-12-15T08:39:14.784Z,3.37
2017-12-15T08:41:41.053Z,8.73
2017-12-15T08:44:07.286Z,3.90
2017-12-15T08:46:33.466Z,8.67
2017-12-15T08:48:59.712Z,4.07
2017-12-15T08:51:25.916Z,3.47
2017-12-15T08:53:52.116Z,5.73
2017-12-15T08:56:18.597Z,4.50
2017-12-15T08:58:44.786Z,3.87
2017-12-15T09:01:10.975Z,4.50
2017-12-15T09:03:37.465Z,4.13
2017-12-15T09:06:03.677Z,7.33
2017-12-15T09:08:29.900Z,7.77
2017-12-15T09:10:56.416Z,2.40
2017-12-15T09:13:22.664Z,4.50
2017-12-15T09:15:48.871Z,5.80
2017-12-15T09:18:15.133Z,6.33
2017-12-15T09:20:41.359Z,5.00
2017-12-15T09:23:07.568Z,4.50
2017-12-15T09:25:33.834Z,3.13
2017-12-15T09:28:00.069Z,4.10
2017-12-15T09:30:26.511Z,1.90
2017-12-15T09:32:52.758Z,6.53
2017-12-15T09:35:19.014Z,6.33
2017-12-15T09:37:45.213Z,9.00
2017-12-15T09:40:11.466Z,7.60
2017-12-15T09:42:37.669Z,4.67
2017-12-15T09:45:03.951Z,6.07
2017-12-15T09:47:30.188Z,4.10
2017-12-15T09:49:56.402Z,3.53
2017-12-15T09:52:22.598Z,3.10
2017-12-15T09:54:48.823Z,5.43
2017-12-15T09:57:15.033Z,5.93
2017-12-15T09:59:41.217Z,3.97
2017-12-15T10:02:07.466Z,6.80
2017-12-15T10:04:33.674Z,4.30
2017-12-15T10:06:59.932Z,4.33
2017-12-15T10:09:26.150Z,2.40
2017-12-15T10:11:52.344Z,2.90
2017-12-15T10:14:18.599Z,2.70
2017-12-15T10:16:44.794Z,9.00
2017-12-15T10:19:11.038Z,5.63
2017-12-15T10:21:37.295Z,8.27
2017-12-15T10:24:03.501Z,3.60
2017-12-15T10:26:29.710Z,3.27
2017-12-15T10:28:55.970Z,6.70
2017-12-15T10:31:22.167Z,4.67
2017-12-15T10:33:48.366Z,3.50
2017-12-15T10:36:14.663Z,5.80
2017-12-15T10:38:40.852Z,3.00
2017-12-15T10:41:07.039Z,2.97
2017-12-15T10:43:33.270Z,7.03
2017-12-15T10:45:59.480Z,3.33
2017-12-15T10:48:25.694Z,7.13
2017-12-15T10:50:51.985Z,2.17
2017-12-15T10:53:18.198Z,12.87
2017-12-15T10:55:44.418Z,8.20
2017-12-15T10:58:10.911Z,3.13
2017-12-15T11:00:37.121Z,3.73
2017-12-15T11:03:03.368Z,2.13
2017-12-15T11:05:29.885Z,4.33
2017-12-15T11:07:56.327Z,4.77
2017-12-15T11:10:22.619Z,3.23
2017-12-15T11:12:49.106Z,3.10
2017-12-15T11:15:15.301Z,6.10
2017-12-15T11:17:41.786Z,3.60
2017-12-15T11:20:08.272Z,5.50
2017-12-15T11:22:34.477Z,4.57
2017-12-15T11:25:00.684Z,4.97
2017-12-15T11:27:26.959Z,7.33
2017-12-15T11:29:53.153Z,10.53
2017-12-15T11:32:19.358Z,4.90
2017-12-15T11:34:45.616Z,3.73
2017-12-15T11:37:12.071Z,4.30
2017-12-15T11:39:38.272Z,2.40
2017-12-15T11:42:04.542Z,2.60
2017-12-15T11:44:30.814Z,6.73
2017-12-15T11:46:57.152Z,6.73
2017-12-15T11:49:23.406Z,7.10
2017-12-15T11:51:49.593Z,8.90
2017-12-15T11:54:15.796Z,6.30
2017-12-15T11:56:42.057Z,13.40
2017-12-15T11:59:08.275Z,5.37
2017-12-15T12:01:34.482Z,8.70
2017-12-15T12:04:00.727Z,5.80
2017-12-15T12:06:26.934Z,8.07
2017-12-15T12:08:53.127Z,3.40
2017-12-15T12:11:19.394Z,2.43
2017-12-15T12:13:45.580Z,3.80
2017-12-15T12:16:11.934Z,8.63
2017-12-15T12:18:38.190Z,5.97
2017-12-15T12:21:04.410Z,8.03
2017-12-15T12:23:30.847Z,4.87
2017-12-15T12:25:57.101Z,3.60
2017-12-15T12:28:23.312Z,4.17
2017-12-15T12:30:49.742Z,5.33
2017-12-15T12:33:16.005Z,5.93
2017-12-15T12:35:42.207Z,9.57
2017-12-15T12:38:08.413Z,9.87
2017-12-15T12:40:34.670Z,3.77
2017-12-15T12:43:00.863Z,5.07
2017-12-15T12:45:27.301Z,4.50
2017-12-15T12:47:53.578Z,9.17
2017-12-15T12:50:20.069Z,5.70
2017-12-15T12:52:46.280Z,3.20
2017-12-15T12:55:12.550Z,3.40
2017-12-15T12:57:38.985Z,5.13
2017-12-15T13:00:05.208Z,3.50
2017-12-15T13:02:31.459Z,5.40
2017-12-15T13:04:57.898Z,9.20
2017-12-15T13:07:24.230Z,5.40
2017-12-15T13:09:50.502Z,4.73
2017-12-15T13:12:17.182Z,12.97
2017-12-15T13:14:43.422Z,20.00
2017-12-15T13:17:09.696Z,16.60
2017-12-15T13:19:35.928Z,11.20
2017-12-15T13:22:02.117Z,35.57
2017-12-15T13:24:28.380Z,26.83
2017-12-15T13:26:54.614Z,49.87
2017-12-15T13:29:20.802Z,29.00
2017-12-15T13:31:47.450Z,17.77
2017-12-15T13:34:13.658Z,32.90
2017-12-15T13:36:40.089Z,26.40
2017-12-15T13:39:06.329Z,29.07
2017-12-15T13:41:32.527Z,26.77
2017-12-15T13:43:58.738Z,45.07
2017-12-15T13:46:25.011Z,31.20
2017-12-15T13:48:51.235Z,20.77
2017-12-15T13:51:17.459Z,26.50
2017-12-15T13:53:43.718Z,45.47
2017-12-15T13:56:09.917Z,17.57
2017-12-15T13:58:36.427Z,17.43
2017-12-15T14:01:02.665Z,21.07
2017-12-15T14:03:28.857Z,25.87
2017-12-15T14:05:55.059Z,21.13
2017-12-15T14:08:21.664Z,20.13
2017-12-15T14:10:47.875Z,16.60
2017-12-15T14:13:14.411Z,19.90
2017-12-15T14:15:41.220Z,18.13
2017-12-15T14:18:07.402Z,14.87
2017-12-15T14:20:33.620Z,18.50
2017-12-15T14:22:59.850Z,18.83
2017-12-15T14:25:26.139Z,18.23
2017-12-15T14:27:52.333Z,12.07
2017-12-15T14:30:18.780Z,15.10
2017-12-15T14:32:45.040Z,13.17
2017-12-15T14:35:11.233Z,16.13
2017-12-15T14:37:37.432Z,13.40
2017-12-15T14:40:03.678Z,9.20
2017-12-15T14:42:30.126Z,14.90
2017-12-15T14:44:56.327Z,16.80
2017-12-15T14:47:22.934Z,15.60
2017-12-15T14:49:49.231Z,17.70
2017-12-15T14:52:15.424Z,25.37
2017-12-15T14:54:41.645Z,12.90
2017-12-15T14:57:07.924Z,10.70
2017-12-15T14:59:34.129Z,14.90
2017-12-15T15:02:00.346Z,10.53
2017-12-15T15:04:26.591Z,15.73
2017-12-15T15:06:52.809Z,11.23
2017-12-15T15:09:19.003Z,13.87
2017-12-15T15:11:45.250Z,15.97
2017-12-15T15:14:11.484Z,15.80
2017-12-15T15:16:37.685Z,10.03
2017-12-15T15:19:03.935Z,9.63
2017-12-15T15:21:30.109Z,19.80
2017-12-15T15:23:56.314Z,15.97
2017-12-15T15:26:22.579Z,12.90
2017-12-15T15:28:48.765Z,10.60
2017-12-15T15:31:14.949Z,10.07
2017-12-15T15:33:41.556Z,7.53
2017-12-15T15:36:07.733Z,7.67
2017-12-15T15:38:33.950Z,12.87
2017-12-15T15:41:00.619Z,8.43
2017-12-15T15:43:26.869Z,9.40
2017-12-15T15:45:53.097Z,6.60
2017-12-15T15:48:19.641Z,7.97
2017-12-15T15:50:45.908Z,7.53
2017-12-15T15:53:12.114Z,8.00
2017-12-15T15:55:38.407Z,8.03
2017-12-15T15:58:04.599Z,8.37
2017-12-15T16:00:30.825Z,10.07
2017-12-15T16:02:57.493Z,10.50
2017-12-15T16:05:23.715Z,8.20
2017-12-15T16:07:50.024Z,10.00
2017-12-15T16:10:16.375Z,10.93
2017-12-15T16:12:42.575Z,4.63
2017-12-15T16:15:08.789Z,5.70
2017-12-15T16:17:35.050Z,10.63
2017-12-15T16:20:01.266Z,7.30
2017-12-15T16:22:27.779Z,6.83
2017-12-15T16:24:54.016Z,9.60
2017-12-15T16:27:20.268Z,6.30
2017-12-15T16:29:46.469Z,11.80
2017-12-15T16:32:12.768Z,6.60
2017-12-15T16:34:39.003Z,8.33
2017-12-15T16:37:05.204Z,7.70
2017-12-15T16:39:31.875Z,10.23
2017-12-15T16:41:58.086Z,5.10
2017-12-15T16:44:24.329Z,5.23
2017-12-15T16:46:50.621Z,6.70
2017-12-15T16:49:17.170Z,10.43
2017-12-15T16:51:43.427Z,6.37
2017-12-15T16:54:10.055Z,7.80
2017-12-15T16:56:36.279Z,7.83
2017-12-15T16:59:02.522Z,7.33
2017-12-15T17:01:28.811Z,5.67
2017-12-15T17:03:55.039Z,8.70
2017-12-15T17:06:21.260Z,6.57
2017-12-15T17:08:47.900Z,8.37
2017-12-15T17:11:14.120Z,7.93
2017-12-15T17:13:40.321Z,7.23
2017-12-15T17:16:06.590Z,6.77
2017-12-15T17:18:32.806Z,11.60
2017-12-15T17:20:59.334Z,8.90
2017-12-15T17:23:25.607Z,9.30
2017-12-15T17:25:52.054Z,6.20
2017-12-15T17:28:18.302Z,6.80
2017-12-15T17:30:44.805Z,7.90
2017-12-15T17:33:11.036Z,5.80
2017-12-15T17:35:37.274Z,6.17
2017-12-15T17:38:03.778Z,4.47
2017-12-15T17:40:30.016Z,7.30
2017-12-15T17:42:56.405Z,4.83
2017-12-15T17:45:23.066Z,9.40
2017-12-15T17:47:49.249Z,5.47
2017-12-15T17:50:15.594Z,2.87
2017-12-15T17:52:41.929Z,11.10
2017-12-15T17:55:08.117Z,6.53
2017-12-15T17:57:34.569Z,4.33
2017-12-15T18:00:00.829Z,5.10
2017-12-15T18:02:27.039Z,6.37
2017-12-15T18:04:53.251Z,3.33
2017-12-15T18:07:19.540Z,4.90
2017-12-15T18:09:45.839Z,10.37
2017-12-15T18:12:12.047Z,7.83
2017-12-15T18:14:38.981Z,9.23
2017-12-15T18:17:05.190Z,4.80
2017-12-15T18:19:31.380Z,5.40
2017-12-15T18:21:58.025Z,5.27
2017-12-15T18:24:24.314Z,5.73
2017-12-15T18:26:50.546Z,4.77
2017-12-15T18:29:16.797Z,5.80
2017-12-15T18:31:43.008Z,4.80
2017-12-15T18:34:09.235Z,7.13
2017-12-15T18:36:35.478Z,3.40
2017-12-15T18:39:01.682Z,7.77
2017-12-15T18:41:27.885Z,4.57
2017-12-15T18:43:54.132Z,6.20
2017-12-15T18:46:20.437Z,7.73
2017-12-15T18:48:46.659Z,3.10
2017-12-15T18:51:13.331Z,7.17
2017-12-15T18:53:39.603Z,7.83
2017-12-15T18:56:06.088Z,4.33
2017-12-15T18:58:32.655Z,2.80
2017-12-15T19:00:58.908Z,3.67
2017-12-15T19:03:25.199Z,5.77
2017-12-15T19:05:51.506Z,5.57
2017-12-15T19:08:17.738Z,3.07
2017-12-15T19:10:43.952Z,2.60
2017-12-15T19:13:10.556Z,3.67
2017-12-15T19:15:36.771Z,5.13
2017-12-15T19:18:02.994Z,3.83
2017-12-15T19:20:29.285Z,3.80
2017-12-15T19:22:55.505Z,4.53
2017-12-15T19:25:21.716Z,3.90
2017-12-15T19:27:48.004Z,5.07
2017-12-15T19:30:14.218Z,3.70
2017-12-15T19:32:40.468Z,4.50
2017-12-15T19:35:06.728Z,5.27
2017-12-15T19:37:33.178Z,5.70
2017-12-15T19:39:59.376Z,6.63
2017-12-15T19:42:26.011Z,5.13
2017-12-15T19:44:52.218Z,4.03
2017-12-15T19:47:18.422Z,6.17
2017-12-15T19:49:44.927Z,4.87
2017-12-15T19:52:11.135Z,3.27
2017-12-15T19:54:37.382Z,3.70
2017-12-15T19:57:03.650Z,3.13
2017-12-15T19:59:29.847Z,3.97
2017-12-15T20:01:56.277Z,4.90
2017-12-15T20:04:22.527Z,2.90
2017-12-15T20:06:48.731Z,3.20
2017-12-15T20:09:14.970Z,5.10
2017-12-15T20:11:41.241Z,3.50
2017-12-15T20:14:07.458Z,7.03
2017-12-15T20:16:33.675Z,2.90
2017-12-15T20:18:59.936Z,2.73
2017-12-15T20:21:26.401Z,5.50
2017-12-15T20:23:52.590Z,6.23
2017-12-15T20:26:18.860Z,5.30
2017-12-15T20:28:45.100Z,3.90
2017-12-15T20:31:11.329Z,4.60
2017-12-15T20:33:37.585Z,4.43
2017-12-15T20:36:03.803Z,5.07
2017-12-15T20:38:30.007Z,6.67
2017-12-15T20:40:56.283Z,2.40
2017-12-15T20:43:22.466Z,4.77
2017-12-15T20:45:48.694Z,4.40
2017-12-15T20:48:14.968Z,2.70
2017-12-15T20:50:41.169Z,4.33
2017-12-15T20:53:07.382Z,2.93
2017-12-15T20:55:33.653Z,4.90
2017-12-15T20:57:59.860Z,3.90
2017-12-15T21:00:26.161Z,3.47
2017-12-15T21:02:52.412Z,4.80
2017-12-15T21:05:18.610Z,3.47
2017-12-15T21:07:44.814Z,4.10
2017-12-15T21:10:11.377Z,4.93
2017-12-15T21:12:37.839Z,8.20
2017-12-15T21:15:04.045Z,3.93
2017-12-15T21:20:02.220Z,4.73
2017-12-15T21:22:28.424Z,5.03
2017-12-15T21:24:54.686Z,4.10
2017-12-15T21:27:20.888Z,5.03
2017-12-15T21:29:47.086Z,5.63
2017-12-15T21:32:13.587Z,4.57
2017-12-15T21:34:39.807Z,2.50
2017-12-15T21:37:06.243Z,5.33
2017-12-15T21:39:32.496Z,3.77
2017-12-15T21:41:58.935Z,5.70
2017-12-15T21:44:25.148Z,4.13
2017-12-15T21:46:51.398Z,6.17
2017-12-15T21:49:17.609Z,2.57
2017-12-15T21:51:43.839Z,3.17
2017-12-15T21:54:10.365Z,3.67
2017-12-15T21:56:36.786Z,4.43
2017-12-15T21:59:03.023Z,3.67
2017-12-15T22:01:29.317Z,5.33
2017-12-15T22:03:55.513Z,5.90
2017-12-15T22:06:21.706Z,4.83
2017-12-15T22:08:48.176Z,4.20
2017-12-15T22:11:14.382Z,4.10
2017-12-15T22:13:40.800Z,4.30
2017-12-15T22:16:07.052Z,5.10
2017-12-15T22:18:33.254Z,6.10
2017-12-15T22:20:59.492Z,3.60
2017-12-15T22:23:26.490Z,4.20
2017-12-15T22:25:52.714Z,4.47
2017-12-15T22:28:18.933Z,3.43
2017-12-15T22:30:45.190Z,5.50
2017-12-15T22:33:11.403Z,3.80
2017-12-15T22:35:37.602Z,4.13
2017-12-15T22:38:03.954Z,5.10
2017-12-15T22:40:30.150Z,3.27
2017-12-15T22:42:56.426Z,2.67
2017-12-15T22:45:23.061Z,5.20
2017-12-15T22:47:49.265Z,4.50
2017-12-15T22:50:15.481Z,2.80
2017-12-15T22:52:41.747Z,3.37
2017-12-15T22:55:07.953Z,6.00
2017-12-15T22:57:34.171Z,3.37
2017-12-15T23:00:00.731Z,6.63
2017-12-15T23:02:26.951Z,4.30
2017-12-15T23:04:53.157Z,4.53
2017-12-15T23:07:19.429Z,2.97
2017-12-15T23:09:45.621Z,4.43
2017-12-15T23:12:11.830Z,3.03
2017-12-15T23:14:38.307Z,5.13
2017-12-15T23:17:04.555Z,3.30
2017-12-15T23:19:30.762Z,3.00
2017-12-15T23:21:57.009Z,3.07
2017-12-15T23:24:23.457Z,4.87
2017-12-15T23:26:49.658Z,3.23
2017-12-15T23:29:16.285Z,3.87
2017-12-15T23:34:14.294Z,3.40
2017-12-15T23:36:40.532Z,2.63
2017-12-15T23:39:06.953Z,2.73
2017-12-15T23:41:33.142Z,2.80
2017-12-15T23:43:59.804Z,3.20
2017-12-15T23:46:26.284Z,3.10
2017-12-15T23:48:52.500Z,3.33
2017-12-15T23:51:18.783Z,2.70
2017-12-15T23:53:44.969Z,3.77
2017-12-15T23:59:16.577Z,3.93
